sensor_id;sensor_type;location;lat;lon;timestamp;P1;durP1;ratioP1;P2;durP2;ratioP2
42144;SDS011;27813;43.516;11.890;2024-03-06T06:09:51;9.25;;;3.80;;
42144;SDS011;27813;43.516;11.890;2024-03-06T06:14:26;8.70;;;3.80;;
42144;SDS011;27813;43.516;11.890;2024-03-06T06:18:50;11.68;;;4.63;;
42144;SDS011;27813;43.516;11.890;2024-03-06T06:22:57;20.42;;;8.43;;
42144;SDS011;27813;43.516;11.890;2024-03-06T06:27:02;9.82;;;5.00;;
42144;SDS011;27813;43.516;11.890;2024-03-06T06:31:06;8.20;;;4.18;;
42144;SDS011;27813;43.516;11.890;2024-03-06T06:35:11;10.27;;;5.05;;
42144;SDS011;27813;43.516;11.890;2024-03-06T06:39:17;8.63;;;3.55;;
42144;SDS011;27813;43.516;11.890;2024-03-06T06:43:21;7.63;;;3.20;;
42144;SDS011;27813;43.516;11.890;2024-03-06T06:47:25;8.85;;;4.05;;
42144;SDS011;27813;43.516;11.890;2024-03-06T06:51:30;19.67;;;5.07;;
42144;SDS011;27813;43.516;11.890;2024-03-06T06:55:35;13.40;;;5.22;;
42144;SDS011;27813;43.516;11.890;2024-03-06T06:59:39;11.40;;;5.25;;
42144;SDS011;27813;43.516;11.890;2024-03-06T07:03:46;10.05;;;5.78;;
42144;SDS011;27813;43.516;11.890;2024-03-06T07:07:50;8.68;;;4.75;;
42144;SDS011;27813;43.516;11.890;2024-03-06T07:11:57;11.70;;;5.35;;
42144;SDS011;27813;43.516;11.890;2024-03-06T07:16:02;10.07;;;7.07;;
42144;SDS011;27813;43.516;11.890;2024-03-06T07:20:08;17.85;;;8.15;;
42144;SDS011;27813;43.516;11.890;2024-03-06T07:24:13;30.60;;;10.70;;
42144;SDS011;27813;43.516;11.890;2024-03-06T07:28:18;24.45;;;10.15;;
42144;SDS011;27813;43.516;11.890;2024-03-06T07:32:22;40.42;;;12.02;;
42144;SDS011;27813;43.516;11.890;2024-03-06T07:40:31;26.60;;;11.70;;
42144;SDS011;27813;43.516;11.890;2024-03-06T07:44:35;29.08;;;13.00;;
42144;SDS011;27813;43.516;11.890;2024-03-06T07:48:43;29.20;;;15.88;;
42144;SDS011;27813;43.516;11.890;2024-03-06T07:52:47;35.70;;;15.40;;
42144;SDS011;27813;43.516;11.890;2024-03-06T07:56:54;35.13;;;13.80;;
42144;SDS011;27813;43.516;11.890;2024-03-06T08:05:03;18.35;;;9.32;;
42144;SDS011;27813;43.516;11.890;2024-03-06T08:09:08;16.88;;;9.98;;
42144;SDS011;27813;43.516;11.890;2024-03-06T08:13:13;14.43;;;9.25;;
42144;SDS011;27813;43.516;11.890;2024-03-06T08:17:19;35.45;;;20.00;;
42144;SDS011;27813;43.516;11.890;2024-03-06T08:21:23;21.58;;;13.23;;
42144;SDS011;27813;43.516;11.890;2024-03-06T08:25:28;26.05;;;10.27;;
42144;SDS011;27813;43.516;11.890;2024-03-06T08:29:36;13.75;;;8.30;;
42144;SDS011;27813;43.516;11.890;2024-03-06T08:33:41;17.35;;;10.63;;
42144;SDS011;27813;43.516;11.890;2024-03-06T08:41:49;23.25;;;13.30;;
42144;SDS011;27813;43.516;11.890;2024-03-06T08:45:54;21.38;;;11.77;;
42144;SDS011;27813;43.516;11.890;2024-03-06T08:50:00;18.85;;;10.98;;
42144;SDS011;27813;43.516;11.890;2024-03-06T08:54:06;19.38;;;10.38;;
42144;SDS011;27813;43.516;11.890;2024-03-06T08:58:15;290.38;;;98.50;;
42144;SDS011;27813;43.516;11.890;2024-03-06T09:02:20;97.50;;;44.85;;
42144;SDS011;27813;43.516;11.890;2024-03-06T09:06:24;56.83;;;28.30;;
42144;SDS011;27813;43.516;11.890;2024-03-06T09:10:31;93.28;;;47.83;;
42144;SDS011;27813;43.516;11.890;2024-03-06T09:14:35;56.63;;;29.75;;
42144;SDS011;27813;43.516;11.890;2024-03-06T09:18:42;46.80;;;26.95;;
42144;SDS011;27813;43.516;11.890;2024-03-06T09:22:46;57.95;;;30.77;;
42144;SDS011;27813;43.516;11.890;2024-03-06T09:26:51;52.13;;;25.42;;
42144;SDS011;27813;43.516;11.890;2024-03-06T09:30:56;25.65;;;14.20;;
42144;SDS011;27813;43.516;11.890;2024-03-06T09:35:00;21.15;;;10.50;;
42144;SDS011;27813;43.516;11.890;2024-03-06T09:39:05;17.40;;;8.20;;
42144;SDS011;27813;43.516;11.890;2024-03-06T09:43:11;18.25;;;5.95;;
42144;SDS011;27813;43.516;11.890;2024-03-06T09:51:27;7.35;;;3.00;;
42144;SDS011;27813;43.516;11.890;2024-03-06T09:55:32;4.78;;;1.90;;
42144;SDS011;27813;43.516;11.890;2024-03-06T09:59:39;8.60;;;2.17;;
42144;SDS011;27813;43.516;11.890;2024-03-06T10:03:47;7.60;;;2.90;;
42144;SDS011;27813;43.516;11.890;2024-03-06T10:07:51;11.10;;;2.92;;
42144;SDS011;27813;43.516;11.890;2024-03-06T10:11:56;8.10;;;3.13;;
42144;SDS011;27813;43.516;11.890;2024-03-06T10:16:07;5.95;;;1.75;;
42144;SDS011;27813;43.516;11.890;2024-03-06T10:20:19;6.85;;;2.20;;
42144;SDS011;27813;43.516;11.890;2024-03-06T10:24:27;6.35;;;2.05;;
42144;SDS011;27813;43.516;11.890;2024-03-06T10:28:32;7.57;;;4.80;;
42144;SDS011;27813;43.516;11.890;2024-03-06T10:36:41;7.75;;;3.38;;
42144;SDS011;27813;43.516;11.890;2024-03-06T10:40:47;13.55;;;4.53;;
42144;SDS011;27813;43.516;11.890;2024-03-06T10:44:55;8.63;;;5.32;;
42144;SDS011;27813;43.516;11.890;2024-03-06T10:49:08;8.18;;;2.40;;
42144;SDS011;27813;43.516;11.890;2024-03-06T10:53:15;13.40;;;3.45;;
42144;SDS011;27813;43.516;11.890;2024-03-06T10:57:25;4.93;;;2.58;;
42144;SDS011;27813;43.516;11.890;2024-03-06T11:01:30;4.68;;;2.30;;
42144;SDS011;27813;43.516;11.890;2024-03-06T11:05:41;3.78;;;2.25;;
42144;SDS011;27813;43.516;11.890;2024-03-06T11:09:47;2.90;;;1.23;;
42144;SDS011;27813;43.516;11.890;2024-03-06T11:14:01;3.38;;;1.33;;
42144;SDS011;27813;43.516;11.890;2024-03-06T11:27:04;1.10;;;0.65;;
42144;SDS011;27813;43.516;11.890;2024-03-06T11:31:11;1.20;;;0.63;;
42144;SDS011;27813;43.516;11.890;2024-03-06T11:35:18;5.22;;;2.50;;
42144;SDS011;27813;43.516;11.890;2024-03-06T11:39:28;14.90;;;6.20;;
42144;SDS011;27813;43.516;11.890;2024-03-06T11:43:43;8.32;;;4.00;;
42144;SDS011;27813;43.516;11.890;2024-03-06T11:48:02;4.78;;;1.73;;
42144;SDS011;27813;43.516;11.890;2024-03-06T11:52:07;14.10;;;6.88;;
42144;SDS011;27813;43.516;11.890;2024-03-06T11:56:13;4.20;;;2.72;;
42144;SDS011;27813;43.516;11.890;2024-03-06T12:00:17;3.78;;;1.80;;
42144;SDS011;27813;43.516;11.890;2024-03-06T12:04:22;3.60;;;1.50;;
42144;SDS011;27813;43.516;11.890;2024-03-06T12:08:27;2.08;;;0.90;;
42144;SDS011;27813;43.516;11.890;2024-03-06T12:12:32;9.70;;;3.90;;
42144;SDS011;27813;43.516;11.890;2024-03-06T12:16:36;12.85;;;4.47;;
42144;SDS011;27813;43.516;11.890;2024-03-06T12:20:41;3.50;;;1.77;;
42144;SDS011;27813;43.516;11.890;2024-03-06T12:24:57;1.45;;;0.82;;
42144;SDS011;27813;43.516;11.890;2024-03-06T12:29:07;3.30;;;1.02;;
42144;SDS011;27813;43.516;11.890;2024-03-06T12:33:18;1.58;;;0.80;;
42144;SDS011;27813;43.516;11.890;2024-03-06T12:37:28;2.50;;;0.50;;
42144;SDS011;27813;43.516;11.890;2024-03-06T12:41:37;1.83;;;0.50;;
42144;SDS011;27813;43.516;11.890;2024-03-06T12:45:46;4.13;;;2.40;;
42144;SDS011;27813;43.516;11.890;2024-03-06T12:49:58;4.40;;;2.13;;
42144;SDS011;27813;43.516;11.890;2024-03-06T12:54:03;3.13;;;1.08;;
42144;SDS011;27813;43.516;11.890;2024-03-06T12:58:07;2.28;;;1.02;;
42144;SDS011;27813;43.516;11.890;2024-03-06T13:02:11;0.82;;;0.60;;
42144;SDS011;27813;43.516;11.890;2024-03-06T13:06:16;1.98;;;0.93;;
42144;SDS011;27813;43.516;11.890;2024-03-06T13:10:20;2.13;;;1.00;;
42144;SDS011;27813;43.516;11.890;2024-03-06T13:14:25;68.40;;;26.90;;
42144;SDS011;27813;43.516;11.890;2024-03-06T13:18:29;31.55;;;11.95;;
42144;SDS011;27813;43.516;11.890;2024-03-06T13:22:34;19.52;;;7.03;;
42144;SDS011;27813;43.516;11.890;2024-03-06T13:26:38;127.28;;;39.63;;
42144;SDS011;27813;43.516;11.890;2024-03-06T13:30:44;79.10;;;25.10;;
42144;SDS011;27813;43.516;11.890;2024-03-06T13:34:49;11.63;;;4.40;;
42144;SDS011;27813;43.516;11.890;2024-03-06T13:38:54;7.60;;;3.25;;
42144;SDS011;27813;43.516;11.890;2024-03-06T13:42:59;10.50;;;4.90;;
42144;SDS011;27813;43.516;11.890;2024-03-06T13:47:03;10.18;;;4.75;;
42144;SDS011;27813;43.516;11.890;2024-03-06T13:51:08;5.63;;;2.58;;
42144;SDS011;27813;43.516;11.890;2024-03-06T13:59:16;15.80;;;4.20;;
42144;SDS011;27813;43.516;11.890;2024-03-06T14:03:21;10.55;;;1.88;;
42144;SDS011;27813;43.516;11.890;2024-03-06T14:07:25;22.35;;;2.60;;
42144;SDS011;27813;43.516;11.890;2024-03-06T14:11:30;4.95;;;1.60;;
42144;SDS011;27813;43.516;11.890;2024-03-06T14:15:35;4.63;;;2.08;;
42144;SDS011;27813;43.516;11.890;2024-03-06T14:19:41;4.80;;;1.73;;
42144;SDS011;27813;43.516;11.890;2024-03-06T14:23:46;8.23;;;3.30;;
42144;SDS011;27813;43.516;11.890;2024-03-06T14:27:50;4.47;;;1.50;;
42144;SDS011;27813;43.516;11.890;2024-03-06T14:31:55;4.57;;;1.50;;
42144;SDS011;27813;43.516;11.890;2024-03-06T14:36:00;3.65;;;2.05;;
42144;SDS011;27813;43.516;11.890;2024-03-06T14:40:05;5.90;;;2.00;;
42144;SDS011;27813;43.516;11.890;2024-03-06T14:44:12;7.55;;;1.40;;
42144;SDS011;27813;43.516;11.890;2024-03-06T14:48:17;4.63;;;1.25;;
42144;SDS011;27813;43.516;11.890;2024-03-06T14:52:21;3.20;;;1.30;;
42144;SDS011;27813;43.516;11.890;2024-03-06T14:56:26;3.35;;;1.38;;
42144;SDS011;27813;43.516;11.890;2024-03-06T15:04:34;6.05;;;1.20;;
42144;SDS011;27813;43.516;11.890;2024-03-06T15:08:39;3.05;;;0.80;;
42144;SDS011;27813;43.516;11.890;2024-03-06T15:12:44;1.08;;;0.55;;
42144;SDS011;27813;43.516;11.890;2024-03-06T15:16:49;1.55;;;0.80;;
42144;SDS011;27813;43.516;11.890;2024-03-06T15:20:59;1.25;;;0.45;;
42144;SDS011;27813;43.516;11.890;2024-03-06T15:25:27;1.42;;;0.70;;
42144;SDS011;27813;43.516;11.890;2024-03-06T15:29:37;2.45;;;0.80;;
42144;SDS011;27813;43.516;11.890;2024-03-06T15:34:04;1.77;;;0.70;;
42144;SDS011;27813;43.516;11.890;2024-03-06T15:38:28;2.03;;;0.70;;
42144;SDS011;27813;43.516;11.890;2024-03-06T15:42:34;1.45;;;0.60;;
42144;SDS011;27813;43.516;11.890;2024-03-06T15:46:50;1.47;;;0.80;;
42144;SDS011;27813;43.516;11.890;2024-03-06T15:51:22;2.42;;;0.70;;
42144;SDS011;27813;43.516;11.890;2024-03-06T15:55:48;2.95;;;1.33;;
42144;SDS011;27813;43.516;11.890;2024-03-06T16:00:24;2.92;;;1.40;;
42144;SDS011;27813;43.516;11.890;2024-03-06T16:04:49;2.45;;;1.48;;
42144;SDS011;27813;43.516;11.890;2024-03-06T16:09:27;5.10;;;1.80;;
42144;SDS011;27813;43.516;11.890;2024-03-06T16:13:52;2.25;;;1.38;;
42144;SDS011;27813;43.516;11.890;2024-03-06T16:18:27;6.07;;;2.00;;
42144;SDS011;27813;43.516;11.890;2024-03-06T16:22:55;3.90;;;1.58;;
42144;SDS011;27813;43.516;11.890;2024-03-06T16:27:17;2.92;;;1.80;;
42144;SDS011;27813;43.516;11.890;2024-03-06T16:31:27;4.55;;;2.72;;
42144;SDS011;27813;43.516;11.890;2024-03-06T16:35:52;4.90;;;2.83;;
42144;SDS011;27813;43.516;11.890;2024-03-06T16:40:25;8.57;;;3.50;;
42144;SDS011;27813;43.516;11.890;2024-03-06T16:45:03;8.35;;;3.20;;
42144;SDS011;27813;43.516;11.890;2024-03-06T16:49:18;8.95;;;5.13;;
42144;SDS011;27813;43.516;11.890;2024-03-06T16:53:41;10.00;;;5.57;;
42144;SDS011;27813;43.516;11.890;2024-03-06T16:58:07;10.63;;;4.50;;
42144;SDS011;27813;43.516;11.890;2024-03-06T17:02:23;8.73;;;3.97;;
42144;SDS011;27813;43.516;11.890;2024-03-06T17:06:32;4.53;;;2.72;;
42144;SDS011;27813;43.516;11.890;2024-03-06T17:10:51;4.63;;;2.78;;
42144;SDS011;27813;43.516;11.890;2024-03-06T17:14:55;5.32;;;2.10;;
42144;SDS011;27813;43.516;11.890;2024-03-06T17:19:00;3.03;;;2.00;;
42144;SDS011;27813;43.516;11.890;2024-03-06T17:23:07;2.47;;;1.40;;
42144;SDS011;27813;43.516;11.890;2024-03-06T17:27:16;2.30;;;1.48;;
42144;SDS011;27813;43.516;11.890;2024-03-06T17:31:42;2.75;;;1.55;;
42144;SDS011;27813;43.516;11.890;2024-03-06T17:35:48;11.25;;;5.18;;
42144;SDS011;27813;43.516;11.890;2024-03-06T17:39:59;2.88;;;1.98;;
42144;SDS011;27813;43.516;11.890;2024-03-06T17:44:18;3.75;;;2.80;;
42144;SDS011;27813;43.516;11.890;2024-03-06T17:48:44;5.55;;;3.10;;
42144;SDS011;27813;43.516;11.890;2024-03-06T17:53:17;5.22;;;3.60;;
42144;SDS011;27813;43.516;11.890;2024-03-06T17:57:26;7.25;;;4.38;;
42144;SDS011;27813;43.516;11.890;2024-03-06T18:01:33;14.75;;;7.55;;
42144;SDS011;27813;43.516;11.890;2024-03-06T18:05:38;14.40;;;8.55;;
42144;SDS011;27813;43.516;11.890;2024-03-06T18:09:48;18.30;;;8.32;;
42144;SDS011;27813;43.516;11.890;2024-03-06T18:13:54;10.70;;;5.47;;
42144;SDS011;27813;43.516;11.890;2024-03-06T18:17:59;10.20;;;5.78;;
42144;SDS011;27813;43.516;11.890;2024-03-06T18:22:04;31.55;;;14.45;;
42144;SDS011;27813;43.516;11.890;2024-03-06T18:26:08;24.85;;;12.90;;
42144;SDS011;27813;43.516;11.890;2024-03-06T18:30:14;9.18;;;5.35;;
42144;SDS011;27813;43.516;11.890;2024-03-06T18:34:18;8.20;;;5.65;;
42144;SDS011;27813;43.516;11.890;2024-03-06T18:38:22;9.27;;;4.85;;
42144;SDS011;27813;43.516;11.890;2024-03-06T18:42:27;8.93;;;5.00;;
42144;SDS011;27813;43.516;11.890;2024-03-06T18:46:31;9.07;;;5.30;;
42144;SDS011;27813;43.516;11.890;2024-03-06T18:50:38;6.13;;;3.95;;
42144;SDS011;27813;43.516;11.890;2024-03-06T18:54:42;7.72;;;4.28;;
42144;SDS011;27813;43.516;11.890;2024-03-06T18:58:48;11.68;;;6.43;;
42144;SDS011;27813;43.516;11.890;2024-03-06T19:06:57;11.65;;;5.95;;
42144;SDS011;27813;43.516;11.890;2024-03-06T19:11:02;11.88;;;4.72;;
42144;SDS011;27813;43.516;11.890;2024-03-06T19:15:08;7.15;;;4.10;;
42144;SDS011;27813;43.516;11.890;2024-03-06T19:19:12;8.52;;;4.85;;
42144;SDS011;27813;43.516;11.890;2024-03-06T19:23:18;5.97;;;3.63;;
42144;SDS011;27813;43.516;11.890;2024-03-06T19:27:22;7.28;;;4.55;;
42144;SDS011;27813;43.516;11.890;2024-03-06T19:31:31;10.60;;;7.13;;
42144;SDS011;27813;43.516;11.890;2024-03-06T19:35:38;9.63;;;5.72;;
42144;SDS011;27813;43.516;11.890;2024-03-06T19:39:46;8.85;;;4.93;;
42144;SDS011;27813;43.516;11.890;2024-03-06T19:43:52;9.20;;;3.75;;
42144;SDS011;27813;43.516;11.890;2024-03-06T19:48:00;4.63;;;2.97;;
42144;SDS011;27813;43.516;11.890;2024-03-06T19:52:06;6.93;;;3.50;;
42144;SDS011;27813;43.516;11.890;2024-03-06T19:56:11;5.55;;;3.78;;
42144;SDS011;27813;43.516;11.890;2024-03-06T20:00:17;6.47;;;3.20;;
42144;SDS011;27813;43.516;11.890;2024-03-06T20:04:23;9.15;;;5.18;;
42144;SDS011;27813;43.516;11.890;2024-03-06T20:08:27;7.78;;;4.97;;
42144;SDS011;27813;43.516;11.890;2024-03-06T20:16:36;12.98;;;7.35;;
42144;SDS011;27813;43.516;11.890;2024-03-06T20:20:46;6.15;;;3.85;;
42144;SDS011;27813;43.516;11.890;2024-03-06T20:24:51;7.55;;;3.50;;
42144;SDS011;27813;43.516;11.890;2024-03-06T20:29:01;7.57;;;4.20;;
42144;SDS011;27813;43.516;11.890;2024-03-06T20:33:11;3.95;;;2.58;;
42144;SDS011;27813;43.516;11.890;2024-03-06T20:41:58;6.65;;;3.50;;
42144;SDS011;27813;43.516;11.890;2024-03-06T20:46:08;5.07;;;3.10;;
42144;SDS011;27813;43.516;11.890;2024-03-06T20:50:15;10.02;;;3.80;;
42144;SDS011;27813;43.516;11.890;2024-03-06T20:54:25;6.00;;;3.10;;
42144;SDS011;27813;43.516;11.890;2024-03-06T20:58:33;4.60;;;2.63;;
42144;SDS011;27813;43.516;11.890;2024-03-06T21:02:38;5.10;;;3.38;;
42144;SDS011;27813;43.516;11.890;2024-03-06T21:06:46;6.70;;;3.33;;
42144;SDS011;27813;43.516;11.890;2024-03-06T21:10:52;3.53;;;2.17;;
42144;SDS011;27813;43.516;11.890;2024-03-06T21:15:10;5.03;;;3.38;;
42144;SDS011;27813;43.516;11.890;2024-03-06T21:19:33;6.78;;;3.67;;
42144;SDS011;27813;43.516;11.890;2024-03-06T21:23:42;5.15;;;2.80;;
42144;SDS011;27813;43.516;11.890;2024-03-06T21:27:48;6.53;;;2.58;;
42144;SDS011;27813;43.516;11.890;2024-03-06T21:31:56;7.65;;;4.20;;
42144;SDS011;27813;43.516;11.890;2024-03-06T21:36:03;7.88;;;4.68;;
42144;SDS011;27813;43.516;11.890;2024-03-06T21:40:11;9.98;;;6.75;;
42144;SDS011;27813;43.516;11.890;2024-03-06T21:44:24;9.93;;;5.70;;
42144;SDS011;27813;43.516;11.890;2024-03-06T21:48:32;9.82;;;5.18;;
42144;SDS011;27813;43.516;11.890;2024-03-06T21:52:42;15.65;;;8.00;;
42144;SDS011;27813;43.516;11.890;2024-03-06T21:56:52;37.15;;;12.60;;
42144;SDS011;27813;43.516;11.890;2024-03-06T22:01:00;18.52;;;8.40;;
42144;SDS011;27813;43.516;11.890;2024-03-06T22:05:08;7.45;;;4.28;;
42144;SDS011;27813;43.516;11.890;2024-03-06T22:09:16;5.70;;;3.40;;
42144;SDS011;27813;43.516;11.890;2024-03-06T22:13:21;6.45;;;3.40;;
42144;SDS011;27813;43.516;11.890;2024-03-06T22:17:31;10.07;;;4.93;;
42144;SDS011;27813;43.516;11.890;2024-03-06T22:21:36;7.22;;;4.03;;
42144;SDS011;27813;43.516;11.890;2024-03-06T22:25:41;6.97;;;4.25;;
42144;SDS011;27813;43.516;11.890;2024-03-06T22:29:49;9.07;;;4.38;;
42144;SDS011;27813;43.516;11.890;2024-03-06T22:33:54;8.75;;;3.50;;
42144;SDS011;27813;43.516;11.890;2024-03-06T22:37:59;6.65;;;2.75;;
42144;SDS011;27813;43.516;11.890;2024-03-06T22:42:09;6.00;;;3.33;;
42144;SDS011;27813;43.516;11.890;2024-03-06T22:46:14;5.63;;;3.00;;
42144;SDS011;27813;43.516;11.890;2024-03-06T22:50:19;5.75;;;3.85;;
42144;SDS011;27813;43.516;11.890;2024-03-06T22:54:23;6.18;;;3.65;;
42144;SDS011;27813;43.516;11.890;2024-03-06T22:58:27;6.55;;;4.20;;
